createdAt,value
2023-12-29T00:00:00.442Z,-0.4
2023-12-29T00:15:00.413Z,-0.65
2023-12-29T00:30:00.447Z,-0.7
2023-12-29T00:45:00.427Z,-0.9
2023-12-29T01:00:00.522Z,-0.8
2023-12-29T01:15:00.365Z,-1.0
2023-12-29T01:30:00.381Z,-1.05
2023-12-29T01:45:00.406Z,-0.8
2023-12-29T02:00:00.497Z,-0.95
2023-12-29T02:15:00.370Z,-1.0
2023-12-29T02:30:00.366Z,-0.95
2023-12-29T02:45:00.372Z,-1.15
2023-12-29T03:00:00.439Z,-1.35
2023-12-29T03:15:00.467Z,-1.25
2023-12-29T03:30:00.587Z,-1.35
2023-12-29T03:45:00.551Z,-1.5
2023-12-29T04:00:00.383Z,-1.6
2023-12-29T04:15:00.364Z,-1.6
2023-12-29T04:30:00.435Z,-1.45
2023-12-29T04:45:00.528Z,-1.8
2023-12-29T05:00:00.499Z,-1.7
2023-12-29T05:15:00.376Z,-1.7
2023-12-29T05:30:00.408Z,-1.95
2023-12-29T05:45:00.460Z,-1.9
2023-12-29T06:00:00.455Z,-1.95
2023-12-29T06:15:00.390Z,-1.85
2023-12-29T06:30:00.400Z,-2.0
2023-12-29T06:45:00.396Z,-2.25
2023-12-29T07:00:00.477Z,-2.0
2023-12-29T07:15:00.392Z,-1.9
2023-12-29T07:30:00.408Z,-1.9
2023-12-29T07:45:00.432Z,-1.7
2023-12-29T08:00:00.656Z,-1.35
2023-12-29T08:15:00.464Z,-0.8
2023-12-29T08:30:00.430Z,-0.2
2023-12-29T08:45:00.611Z,0.9
2023-12-29T09:00:00.704Z,1.45
2023-12-29T09:15:00.692Z,2.45
2023-12-29T09:30:00.582Z,3.3
2023-12-29T09:45:00.594Z,4.15
2023-12-29T10:00:00.730Z,4.95
2023-12-29T10:15:00.675Z,6.15
2023-12-29T10:30:00.602Z,6.9
2023-12-29T10:45:00.612Z,7.2
2023-12-29T11:00:00.882Z,8.1
2023-12-29T11:15:00.632Z,8.3
2023-12-29T11:30:00.601Z,8.7
2023-12-29T11:45:00.600Z,8.8
2023-12-29T12:00:00.591Z,8.8
2023-12-29T12:15:00.655Z,9.1
2023-12-29T12:30:00.639Z,8.5
2023-12-29T12:45:00.656Z,8.9
2023-12-29T13:00:00.616Z,8.85
2023-12-29T13:15:00.648Z,8.85
2023-12-29T13:30:00.606Z,9.3
2023-12-29T13:45:00.607Z,9.35
2023-12-29T14:00:00.611Z,8.8
2023-12-29T14:15:00.656Z,8.4
2023-12-29T14:30:01.829Z,7.75
2023-12-29T14:45:00.599Z,6.9
2023-12-29T15:00:00.578Z,6.2
2023-12-29T15:15:00.642Z,5.2
2023-12-29T15:30:00.635Z,4.8
2023-12-29T15:45:00.601Z,4.2
2023-12-29T16:00:00.649Z,3.75
2023-12-29T16:15:00.679Z,3.45
2023-12-29T16:30:00.601Z,3.05
2023-12-29T16:45:00.635Z,2.6
2023-12-29T17:00:00.594Z,2.15
2023-12-29T17:15:00.642Z,2.0
2023-12-29T17:30:00.856Z,1.3
2023-12-29T17:45:00.601Z,1.55
2023-12-29T18:00:00.645Z,1.3
2023-12-29T18:15:01.105Z,0.75
2023-12-29T18:30:00.559Z,0.9
2023-12-29T18:45:00.612Z,0.7
2023-12-29T19:00:00.628Z,0.45
2023-12-29T19:15:00.617Z,0.4
2023-12-29T19:30:00.715Z,0.25
2023-12-29T19:45:06.220Z,0.1
2023-12-29T20:00:00.617Z,-0.05
2023-12-29T20:15:00.606Z,-0.1
2023-12-29T20:30:00.595Z,0.0
2023-12-29T20:45:00.683Z,-0.55
2023-12-29T21:00:00.615Z,-0.55
2023-12-29T21:15:00.616Z,-0.4
2023-12-29T21:30:00.615Z,-0.45
2023-12-29T21:45:00.620Z,-0.45
2023-12-29T22:00:00.708Z,-0.55
2023-12-29T22:15:00.600Z,-0.5
2023-12-29T22:30:00.650Z,-0.55
2023-12-29T22:45:00.655Z,-0.7
2023-12-29T23:00:00.561Z,-0.75
2023-12-29T23:15:00.684Z,-0.95
2023-12-29T23:30:00.598Z,-1.0
2023-12-29T23:45:00.633Z,-0.85
